createdAt,value
2019-02-26T00:00:26.919Z,5.40
2019-02-26T00:02:56.349Z,5.30
2019-02-26T00:05:26.143Z,5.40
2019-02-26T00:07:56.161Z,5.20
2019-02-26T00:10:26.733Z,5.20
2019-02-26T00:12:55.323Z,5.10
2019-02-26T00:15:23.639Z,5.00
2019-02-26T00:17:53.030Z,5.10
2019-02-26T00:20:21.475Z,5.00
2019-02-26T00:22:49.896Z,4.90
2019-02-26T00:25:20.371Z,4.80
2019-02-26T00:27:49.634Z,4.80
2019-02-26T00:30:18.621Z,4.80
2019-02-26T00:32:47.133Z,4.70
2019-02-26T00:35:16.017Z,4.60
2019-02-26T00:37:46.641Z,4.60
2019-02-26T00:40:19.575Z,4.60
2019-02-26T00:42:45.559Z,4.70
2019-02-26T00:45:14.227Z,4.70
2019-02-26T00:47:43.551Z,4.60
2019-02-26T00:50:14.232Z,4.60
2019-02-26T00:52:43.792Z,4.60
2019-02-26T00:55:12.210Z,4.50
2019-02-26T00:57:42.482Z,4.60
2019-02-26T01:00:15.311Z,4.50
2019-02-26T01:02:43.603Z,4.50
2019-02-26T01:05:13.140Z,4.50
2019-02-26T01:07:44.260Z,4.50
2019-02-26T01:10:13.972Z,4.40
2019-02-26T01:12:42.638Z,4.50
2019-02-26T01:15:14.110Z,4.50
2019-02-26T01:17:42.538Z,4.60
2019-02-26T01:20:13.052Z,4.60
2019-02-26T01:22:42.851Z,4.60
2019-02-26T01:25:12.673Z,4.60
2019-02-26T01:27:43.712Z,4.50
2019-02-26T01:30:18.168Z,4.50
2019-02-26T01:32:45.522Z,4.60
2019-02-26T01:35:13.792Z,4.60
2019-02-26T01:37:42.103Z,4.50
2019-02-26T01:40:16.382Z,4.50
2019-02-26T01:42:47.295Z,4.50
2019-02-26T01:45:14.448Z,4.60
2019-02-26T01:47:45.269Z,4.60
2019-02-26T01:50:13.973Z,4.70
2019-02-26T01:52:43.295Z,4.70
2019-02-26T01:55:11.989Z,4.80
2019-02-26T01:57:42.655Z,4.70
2019-02-26T02:00:13.615Z,4.80
2019-02-26T02:02:41.930Z,4.80
2019-02-26T02:05:10.283Z,4.90
2019-02-26T02:07:38.662Z,4.90
2019-02-26T02:10:14.471Z,4.90
2019-02-26T02:12:42.748Z,4.90
2019-02-26T02:15:14.914Z,4.90
2019-02-26T02:17:42.923Z,4.90
2019-02-26T02:20:15.698Z,5.00
2019-02-26T02:22:44.465Z,4.90
2019-02-26T02:25:13.009Z,5.00
2019-02-26T02:27:41.368Z,5.00
2019-02-26T02:30:17.903Z,5.00
2019-02-26T02:32:43.019Z,4.90
2019-02-26T02:35:12.556Z,4.90
2019-02-26T02:37:41.354Z,5.00
2019-02-26T02:40:13.832Z,5.00
2019-02-26T02:42:43.102Z,5.10
2019-02-26T02:45:16.115Z,5.10
2019-02-26T02:47:42.949Z,5.00
2019-02-26T02:50:15.236Z,5.10
2019-02-26T02:52:44.552Z,5.10
2019-02-26T02:55:13.821Z,5.20
2019-02-26T02:57:42.831Z,5.20
2019-02-26T03:00:13.041Z,5.10
2019-02-26T03:02:43.242Z,5.20
2019-02-26T03:05:12.403Z,5.20
2019-02-26T03:07:42.374Z,5.20
2019-02-26T03:10:13.210Z,5.20
2019-02-26T03:12:44.105Z,5.30
2019-02-26T03:15:14.868Z,5.30
2019-02-26T03:17:43.221Z,5.40
2019-02-26T03:20:12.536Z,5.40
2019-02-26T03:22:45.089Z,5.40
2019-02-26T03:25:17.755Z,5.40
2019-02-26T03:27:45.399Z,5.40
2019-02-26T03:30:26.268Z,5.50
2019-02-26T03:32:50.526Z,5.50
2019-02-26T03:35:19.692Z,5.50
2019-02-26T03:37:48.798Z,5.60
2019-02-26T03:40:16.903Z,5.50
2019-02-26T03:42:46.282Z,5.50
2019-02-26T03:45:23.795Z,5.50
2019-02-26T03:47:47.727Z,5.50
2019-02-26T03:50:16.468Z,5.60
2019-02-26T03:52:44.928Z,5.50
2019-02-26T03:55:15.453Z,5.50
2019-02-26T03:57:47.257Z,5.60
2019-02-26T04:00:17.417Z,5.60
2019-02-26T04:02:48.134Z,5.60
2019-02-26T04:05:15.528Z,5.50
2019-02-26T04:07:44.150Z,5.50
2019-02-26T04:10:13.027Z,5.50
2019-02-26T04:12:42.230Z,5.50
2019-02-26T04:15:14.674Z,5.60
2019-02-26T04:17:42.957Z,5.60
2019-02-26T04:20:12.775Z,5.60
2019-02-26T04:22:43.172Z,5.50
2019-02-26T04:25:22.080Z,5.50
2019-02-26T04:28:12.302Z,5.50
2019-02-26T04:30:58.919Z,5.60
2019-02-26T04:33:48.825Z,5.60
2019-02-26T04:36:26.460Z,5.60
2019-02-26T04:39:15.847Z,5.60
2019-02-26T04:41:49.513Z,5.60
2019-02-26T04:44:26.821Z,5.60
2019-02-26T04:46:57.078Z,5.70
2019-02-26T04:49:27.132Z,5.70
2019-02-26T04:51:54.991Z,5.70
2019-02-26T04:54:26.319Z,5.70
2019-02-26T04:56:53.331Z,5.70
2019-02-26T04:59:21.609Z,5.70
2019-02-26T05:01:52.222Z,5.70
2019-02-26T05:04:19.934Z,5.80
2019-02-26T05:06:48.279Z,5.80
2019-02-26T05:09:17.526Z,5.80
2019-02-26T05:11:45.861Z,5.80
2019-02-26T05:14:15.369Z,5.80
2019-02-26T05:16:44.185Z,5.80
2019-02-26T05:19:13.594Z,5.90
2019-02-26T05:21:42.530Z,5.90
2019-02-26T05:24:13.058Z,5.90
2019-02-26T05:26:40.860Z,5.90
2019-02-26T05:29:12.260Z,5.80
2019-02-26T05:31:43.040Z,5.80
2019-02-26T05:34:12.453Z,5.80
2019-02-26T05:36:43.542Z,5.80
2019-02-26T05:39:10.693Z,5.90
2019-02-26T05:41:40.628Z,5.90
2019-02-26T05:44:10.671Z,5.90
2019-02-26T05:46:39.199Z,5.80
2019-02-26T05:49:10.621Z,5.80
2019-02-26T05:51:38.238Z,5.80
2019-02-26T05:54:08.011Z,5.90
2019-02-26T05:56:38.158Z,5.90
2019-02-26T05:59:07.464Z,5.80
2019-02-26T06:01:36.856Z,5.90
2019-02-26T06:04:07.697Z,5.90
2019-02-26T06:06:35.204Z,5.90
2019-02-26T06:09:05.601Z,5.80
2019-02-26T06:11:38.546Z,5.80
2019-02-26T06:14:09.079Z,5.90
2019-02-26T06:16:35.165Z,5.90
2019-02-26T06:19:03.566Z,5.80
2019-02-26T06:21:31.908Z,5.90
2019-02-26T06:24:00.410Z,5.80
2019-02-26T06:26:32.690Z,5.90
2019-02-26T06:28:58.780Z,5.90
2019-02-26T06:31:27.346Z,5.90
2019-02-26T06:33:55.727Z,5.90
2019-02-26T06:36:25.754Z,5.90
2019-02-26T06:38:56.025Z,5.80
2019-02-26T06:41:24.195Z,5.90
2019-02-26T06:43:55.088Z,5.90
2019-02-26T06:46:29.431Z,6.00
2019-02-26T06:48:58.827Z,5.90
2019-02-26T06:51:28.307Z,5.80
2019-02-26T06:53:58.833Z,5.90
2019-02-26T06:56:27.243Z,5.90
2019-02-26T06:58:55.592Z,5.90
2019-02-26T07:01:23.971Z,5.90
2019-02-26T07:03:53.847Z,5.90
2019-02-26T07:06:23.416Z,5.90
2019-02-26T07:08:53.500Z,6.00
2019-02-26T07:11:21.302Z,6.00
2019-02-26T07:13:55.431Z,5.90
2019-02-26T07:16:23.745Z,6.00
2019-02-26T07:18:52.119Z,6.00
2019-02-26T07:21:20.430Z,5.90
2019-02-26T07:23:48.919Z,6.00
2019-02-26T07:26:18.539Z,6.10
2019-02-26T07:28:48.808Z,6.10
2019-02-26T07:31:17.442Z,6.10
2019-02-26T07:33:45.785Z,6.10
2019-02-26T07:36:16.065Z,6.10
2019-02-26T07:38:46.446Z,6.10
2019-02-26T07:41:14.225Z,6.10
2019-02-26T07:43:44.608Z,6.20
2019-02-26T07:46:14.476Z,6.20
2019-02-26T07:48:42.647Z,6.20
2019-02-26T07:51:10.923Z,6.20
2019-02-26T07:53:42.008Z,6.20
2019-02-26T07:56:11.896Z,6.30
2019-02-26T07:58:41.197Z,6.40
2019-02-26T08:01:10.276Z,6.30
2019-02-26T08:03:38.557Z,6.20
2019-02-26T08:06:09.127Z,6.20
2019-02-26T08:08:37.462Z,6.20
2019-02-26T08:11:06.997Z,6.20
2019-02-26T08:13:36.598Z,6.20
2019-02-26T08:16:05.181Z,6.20
2019-02-26T08:18:33.748Z,6.20
2019-02-26T08:21:03.000Z,6.30
2019-02-26T08:23:32.159Z,6.40
2019-02-26T08:26:02.326Z,6.40
2019-02-26T08:28:38.386Z,6.40
2019-02-26T08:31:05.503Z,6.40
2019-02-26T08:33:33.807Z,6.30
2019-02-26T08:36:03.053Z,6.30
2019-02-26T08:38:31.447Z,6.30
2019-02-26T08:40:59.992Z,6.40
2019-02-26T08:43:30.008Z,6.50
2019-02-26T08:45:58.329Z,6.60
2019-02-26T08:48:27.154Z,6.60
2019-02-26T08:50:55.869Z,6.60
2019-02-26T08:53:26.498Z,6.60
2019-02-26T08:55:56.271Z,6.70
2019-02-26T08:58:25.748Z,6.80
2019-02-26T09:00:54.619Z,6.90
2019-02-26T09:03:22.916Z,7.10
2019-02-26T09:05:52.170Z,7.00
2019-02-26T09:08:21.335Z,7.00
2019-02-26T09:10:49.607Z,7.10
2019-02-26T09:13:18.703Z,7.00
2019-02-26T09:15:47.407Z,7.10
2019-02-26T09:18:16.022Z,7.10
2019-02-26T09:20:44.491Z,7.10
2019-02-26T09:23:16.312Z,7.00
2019-02-26T09:25:42.916Z,7.10
2019-02-26T09:28:11.290Z,7.10
2019-02-26T09:30:40.822Z,7.20
2019-02-26T09:33:10.925Z,7.40
2019-02-26T09:35:38.588Z,7.50
2019-02-26T09:38:06.918Z,7.60
2019-02-26T09:40:35.726Z,7.50
2019-02-26T09:43:06.046Z,7.40
2019-02-26T09:45:34.240Z,7.40
2019-02-26T09:48:02.597Z,7.30
2019-02-26T09:50:31.469Z,7.30
2019-02-26T09:52:59.807Z,7.30
2019-02-26T09:55:28.224Z,7.20
2019-02-26T09:57:56.591Z,7.30
2019-02-26T10:00:27.097Z,7.40
2019-02-26T10:02:55.629Z,7.50
2019-02-26T10:05:40.161Z,7.50
2019-02-26T10:08:08.838Z,7.50
2019-02-26T10:10:39.679Z,7.60
2019-02-26T10:13:07.292Z,7.50
2019-02-26T10:15:37.391Z,7.50
2019-02-26T10:18:07.231Z,7.50
2019-02-26T10:20:35.671Z,7.50
2019-02-26T10:23:06.186Z,7.40
2019-02-26T10:25:34.990Z,7.30
2019-02-26T10:28:08.809Z,7.40
2019-02-26T10:30:38.281Z,7.50
2019-02-26T10:33:06.003Z,7.40
2019-02-26T10:35:36.143Z,7.30
2019-02-26T10:38:06.231Z,7.20
2019-02-26T10:40:37.071Z,7.30
2019-02-26T10:43:04.386Z,7.40
2019-02-26T10:45:36.034Z,7.70
2019-02-26T10:48:02.777Z,7.70
2019-02-26T10:50:32.050Z,7.90
2019-02-26T10:53:07.229Z,7.90
2019-02-26T10:55:38.197Z,8.10
2019-02-26T10:58:04.763Z,8.40
2019-02-26T11:00:34.497Z,8.40
2019-02-26T11:03:01.108Z,8.40
2019-02-26T11:05:29.459Z,8.40
2019-02-26T11:08:01.718Z,8.30
2019-02-26T11:10:28.132Z,8.40
2019-02-26T11:12:59.275Z,8.30
2019-02-26T11:15:29.767Z,8.20
2019-02-26T11:17:56.539Z,8.40
2019-02-26T11:20:27.799Z,8.50
2019-02-26T11:22:55.480Z,8.60
2019-02-26T11:25:24.891Z,8.80
2019-02-26T11:27:53.763Z,8.80
2019-02-26T11:30:25.851Z,8.70
2019-02-26T11:32:56.028Z,8.60
2019-02-26T11:35:24.647Z,8.70
2019-02-26T11:37:55.400Z,9.00
2019-02-26T11:40:25.435Z,9.00
2019-02-26T11:42:54.844Z,9.10
2019-02-26T11:45:24.498Z,9.20
2019-02-26T11:47:52.160Z,9.20
2019-02-26T11:50:28.090Z,9.50
2019-02-26T11:52:55.036Z,9.60
2019-02-26T11:55:24.382Z,9.50
2019-02-26T11:57:53.539Z,9.60
2019-02-26T12:00:42.268Z,10.00
2019-02-26T12:03:12.438Z,10.00
2019-02-26T12:05:41.834Z,9.90
2019-02-26T12:08:11.546Z,9.80
2019-02-26T12:10:42.223Z,9.80
2019-02-26T12:13:10.564Z,10.30
2019-02-26T12:15:42.624Z,10.90
2019-02-26T12:18:10.177Z,11.70
2019-02-26T12:20:41.006Z,12.50
2019-02-26T12:23:11.602Z,12.70
2019-02-26T12:25:39.296Z,12.50
2019-02-26T12:28:08.157Z,13.10
2019-02-26T12:30:43.739Z,12.60
2019-02-26T12:33:12.358Z,13.30
2019-02-26T12:35:42.966Z,14.10
2019-02-26T12:38:18.067Z,14.60
2019-02-26T12:40:44.101Z,15.00
2019-02-26T12:43:11.683Z,14.70
2019-02-26T12:45:40.832Z,14.80
2019-02-26T12:48:10.304Z,13.30
2019-02-26T12:50:40.469Z,13.80
2019-02-26T12:53:12.706Z,14.60
2019-02-26T12:55:42.072Z,14.30
2019-02-26T12:58:10.624Z,14.60
2019-02-26T13:00:41.999Z,14.60
2019-02-26T13:03:12.339Z,14.50
2019-02-26T13:05:42.450Z,14.40
2019-02-26T13:08:10.582Z,14.00
2019-02-26T13:10:42.558Z,14.00
2019-02-26T13:13:09.449Z,14.20
2019-02-26T13:15:37.865Z,14.90
2019-02-26T13:18:06.322Z,14.80
2019-02-26T13:20:35.357Z,14.30
2019-02-26T13:23:16.490Z,14.00
2019-02-26T13:25:34.596Z,14.10
2019-02-26T13:28:02.886Z,14.00
2019-02-26T13:30:31.285Z,13.80
2019-02-26T13:33:00.886Z,13.60
2019-02-26T13:35:29.715Z,13.80
2019-02-26T13:38:02.968Z,14.20
2019-02-26T13:40:38.222Z,14.70
2019-02-26T13:45:29.736Z,14.50
2019-02-26T13:48:01.320Z,14.30
2019-02-26T13:50:30.406Z,14.20
2019-02-26T13:52:58.716Z,13.60
2019-02-26T13:55:26.991Z,13.80
2019-02-26T13:57:55.388Z,14.00
2019-02-26T14:00:26.721Z,14.20
2019-02-26T14:02:53.764Z,14.40
2019-02-26T14:05:22.251Z,14.90
2019-02-26T14:07:50.731Z,15.50
2019-02-26T14:10:25.667Z,15.60
2019-02-26T14:12:54.022Z,15.30
2019-02-26T14:15:26.677Z,15.10
2019-02-26T14:17:55.063Z,15.50
2019-02-26T14:20:24.407Z,15.60
2019-02-26T14:22:52.791Z,15.10
2019-02-26T14:25:21.079Z,14.70
2019-02-26T14:27:49.812Z,14.60
2019-02-26T14:30:22.106Z,14.70
2019-02-26T14:32:50.462Z,14.00
2019-02-26T14:35:18.771Z,13.60
2019-02-26T14:37:47.244Z,13.70
2019-02-26T14:40:19.438Z,13.70
2019-02-26T14:42:47.766Z,13.30
2019-02-26T14:45:20.629Z,13.50
2019-02-26T14:47:49.030Z,13.90
2019-02-26T14:50:18.551Z,14.30
2019-02-26T14:52:46.960Z,13.60
2019-02-26T14:55:16.090Z,13.30
2019-02-26T14:57:44.481Z,13.70
2019-02-26T15:00:24.355Z,13.50
2019-02-26T15:02:52.702Z,13.60
2019-02-26T15:05:20.982Z,13.90
2019-02-26T15:07:49.381Z,14.20
2019-02-26T15:10:17.738Z,14.00
2019-02-26T15:12:46.182Z,14.00
2019-02-26T15:15:16.910Z,13.90
2019-02-26T15:17:45.263Z,13.10
2019-02-26T15:20:21.877Z,12.70
2019-02-26T15:22:50.200Z,12.40
2019-02-26T15:25:23.760Z,12.20
2019-02-26T15:27:52.150Z,12.20
2019-02-26T15:30:21.463Z,11.70
2019-02-26T15:32:49.823Z,11.20
2019-02-26T15:35:18.222Z,11.00
2019-02-26T15:37:46.568Z,10.70
2019-02-26T15:40:19.676Z,10.60
2019-02-26T15:42:52.298Z,10.60
2019-02-26T15:45:29.513Z,10.40
2019-02-26T15:47:58.054Z,10.30
2019-02-26T15:50:26.415Z,10.20
2019-02-26T15:52:54.703Z,10.00
2019-02-26T15:55:25.904Z,9.80
2019-02-26T15:57:54.788Z,9.60
2019-02-26T16:00:24.713Z,9.50
2019-02-26T16:02:53.860Z,9.50
2019-02-26T16:05:31.120Z,9.40
2019-02-26T16:07:59.545Z,9.20
2019-02-26T16:10:27.898Z,9.10
2019-02-26T16:12:57.896Z,9.10
2019-02-26T16:15:26.334Z,9.00
2019-02-26T16:17:58.165Z,8.90
2019-02-26T16:20:24.842Z,8.90
2019-02-26T16:22:53.240Z,8.70
2019-02-26T16:25:21.612Z,8.60
2019-02-26T16:27:51.672Z,8.50
2019-02-26T16:30:21.873Z,8.50
2019-02-26T16:32:50.348Z,8.40
2019-02-26T16:35:18.734Z,8.30
2019-02-26T16:38:06.583Z,8.20
2019-02-26T16:40:34.959Z,8.10
2019-02-26T16:43:03.749Z,8.10
2019-02-26T16:45:35.075Z,8.00
2019-02-26T16:48:02.123Z,8.00
2019-02-26T16:50:31.415Z,7.90
2019-02-26T16:53:01.052Z,7.90
2019-02-26T16:55:29.880Z,7.90
2019-02-26T16:58:02.375Z,7.90
2019-02-26T17:00:29.727Z,7.80
2019-02-26T17:03:00.003Z,7.80
2019-02-26T17:05:27.406Z,7.70
2019-02-26T17:07:56.087Z,7.70
2019-02-26T17:10:29.365Z,7.70
2019-02-26T17:13:01.994Z,7.60
2019-02-26T17:15:30.668Z,7.60
2019-02-26T17:17:59.014Z,7.60
2019-02-26T17:20:27.367Z,7.60
2019-02-26T17:22:55.774Z,7.50
2019-02-26T17:25:27.525Z,7.40
2019-02-26T17:27:54.151Z,7.40
2019-02-26T17:30:23.863Z,7.20
2019-02-26T17:32:52.475Z,7.10
2019-02-26T17:35:21.379Z,7.10
2019-02-26T17:37:52.727Z,7.10
2019-02-26T17:40:22.243Z,7.00
2019-02-26T17:42:51.312Z,6.90
2019-02-26T17:45:31.515Z,6.80
2019-02-26T17:47:59.909Z,6.80
2019-02-26T17:50:37.252Z,6.80
2019-02-26T17:53:05.552Z,6.60
2019-02-26T17:55:33.835Z,6.60
2019-02-26T17:58:02.156Z,6.50
2019-02-26T18:00:32.148Z,6.40
2019-02-26T18:03:00.431Z,6.40
2019-02-26T18:05:28.828Z,6.50
2019-02-26T18:07:57.179Z,6.50
2019-02-26T18:10:26.627Z,6.40
2019-02-26T18:12:55.581Z,6.30
2019-02-26T18:15:23.957Z,6.30
2019-02-26T18:17:52.297Z,6.30
2019-02-26T18:20:28.087Z,6.20
2019-02-26T18:22:54.320Z,6.20
2019-02-26T18:25:23.510Z,6.20
2019-02-26T18:27:51.833Z,6.00
2019-02-26T18:30:22.024Z,6.00
2019-02-26T18:32:53.164Z,5.80
2019-02-26T18:35:20.443Z,5.70
2019-02-26T18:37:48.900Z,5.60
2019-02-26T18:40:17.817Z,5.60
2019-02-26T18:42:46.337Z,5.50
2019-02-26T18:45:27.447Z,5.50
2019-02-26T18:47:53.048Z,5.40
2019-02-26T18:50:25.791Z,5.40
2019-02-26T18:52:54.087Z,5.50
2019-02-26T18:55:38.537Z,5.50
2019-02-26T18:58:13.731Z,5.40
2019-02-26T19:00:43.055Z,5.40
2019-02-26T19:03:13.080Z,5.20
2019-02-26T19:05:41.427Z,5.10
2019-02-26T19:08:09.772Z,5.10
2019-02-26T19:10:38.171Z,5.00
2019-02-26T19:13:06.599Z,5.00
2019-02-26T19:15:36.945Z,4.90
2019-02-26T19:18:05.331Z,4.90
2019-02-26T19:20:38.725Z,4.90
2019-02-26T19:23:07.108Z,4.80
2019-02-26T19:25:35.481Z,4.80
2019-02-26T19:28:03.864Z,4.70
2019-02-26T19:30:32.264Z,4.70
2019-02-26T19:33:00.687Z,4.60
2019-02-26T19:35:34.803Z,4.50
2019-02-26T19:38:02.729Z,4.50
2019-02-26T19:40:40.650Z,4.40
2019-02-26T19:43:11.976Z,4.30
2019-02-26T19:45:43.815Z,4.20
2019-02-26T19:48:10.407Z,4.20
2019-02-26T19:50:38.796Z,4.10
2019-02-26T19:53:10.732Z,4.00
2019-02-26T19:55:48.797Z,3.90
2019-02-26T19:58:32.260Z,3.80
2019-02-26T20:01:00.786Z,3.80
2019-02-26T20:06:23.568Z,3.70
2019-02-26T20:08:52.389Z,3.80
2019-02-26T20:11:22.761Z,3.80
2019-02-26T20:13:50.848Z,3.80
2019-02-26T20:16:19.136Z,3.90
2019-02-26T20:18:47.420Z,3.90
2019-02-26T20:21:19.663Z,4.00
2019-02-26T20:23:53.536Z,4.00
2019-02-26T20:26:22.122Z,3.90
2019-02-26T20:28:50.479Z,3.90
2019-02-26T20:31:21.459Z,4.00
2019-02-26T20:33:50.529Z,4.00
2019-02-26T20:36:20.509Z,4.00
2019-02-26T20:38:48.787Z,4.00
2019-02-26T20:41:17.192Z,4.10
2019-02-26T20:43:50.825Z,4.20
2019-02-26T20:46:19.175Z,4.20
2019-02-26T20:48:47.593Z,4.20
2019-02-26T20:51:20.596Z,4.30
2019-02-26T20:53:48.959Z,4.20
2019-02-26T20:56:17.855Z,4.20
2019-02-26T20:58:46.150Z,4.10
2019-02-26T21:01:14.602Z,4.20
2019-02-26T21:03:58.842Z,4.20
2019-02-26T21:06:27.195Z,4.20
2019-02-26T21:08:55.603Z,4.20
2019-02-26T21:11:25.932Z,4.10
2019-02-26T21:13:55.671Z,4.10
2019-02-26T21:16:23.995Z,3.90
2019-02-26T21:18:52.276Z,4.00
2019-02-26T21:21:22.161Z,3.90
2019-02-26T21:23:52.153Z,3.90
2019-02-26T21:26:20.541Z,4.00
2019-02-26T21:28:59.390Z,4.00
2019-02-26T21:31:20.732Z,4.00
2019-02-26T21:33:49.016Z,3.90
2019-02-26T21:36:17.367Z,3.70
2019-02-26T21:38:45.735Z,3.70
2019-02-26T21:41:14.044Z,3.80
2019-02-26T21:43:43.947Z,3.80
2019-02-26T21:46:12.545Z,3.70
2019-02-26T21:48:40.820Z,3.80
2019-02-26T21:51:09.105Z,3.70
2019-02-26T21:53:37.419Z,3.50
2019-02-26T21:56:05.699Z,3.40
2019-02-26T21:58:36.052Z,3.60
2019-02-26T22:01:05.412Z,3.30
2019-02-26T22:03:35.414Z,3.30
2019-02-26T22:06:05.483Z,3.30
2019-02-26T22:08:34.372Z,3.30
2019-02-26T22:11:05.568Z,3.30
2019-02-26T22:13:36.945Z,3.40
2019-02-26T22:16:05.317Z,3.30
2019-02-26T22:18:34.325Z,3.10
2019-02-26T22:21:02.791Z,3.20
2019-02-26T22:23:34.040Z,3.20
2019-02-26T22:26:01.235Z,3.10
2019-02-26T22:28:29.591Z,2.90
2019-02-26T22:30:57.903Z,2.80
2019-02-26T22:33:28.480Z,2.60
2019-02-26T22:35:59.822Z,2.50
2019-02-26T22:38:27.876Z,2.40
2019-02-26T22:40:56.251Z,2.40
2019-02-26T22:43:24.519Z,2.40
2019-02-26T22:45:52.856Z,2.30
2019-02-26T22:48:21.258Z,2.30
2019-02-26T22:50:49.551Z,2.50
2019-02-26T22:53:17.965Z,2.80
2019-02-26T22:55:49.610Z,2.90
2019-02-26T22:58:16.315Z,3.00
2019-02-26T23:00:58.244Z,2.80
2019-02-26T23:03:26.523Z,2.80
2019-02-26T23:05:59.051Z,2.70
2019-02-26T23:08:29.898Z,2.80
2019-02-26T23:10:58.323Z,2.70
2019-02-26T23:13:31.431Z,2.70
2019-02-26T23:15:57.110Z,2.70
2019-02-26T23:18:25.448Z,2.80
2019-02-26T23:20:53.727Z,2.80
2019-02-26T23:23:22.413Z,2.80
2019-02-26T23:25:50.825Z,2.70
2019-02-26T23:28:21.731Z,2.70
2019-02-26T23:30:49.191Z,2.60
2019-02-26T23:33:17.488Z,2.60
2019-02-26T23:35:47.999Z,2.60
2019-02-26T23:38:16.320Z,2.50
2019-02-26T23:40:46.363Z,2.50
2019-02-26T23:43:14.719Z,2.50
2019-02-26T23:45:43.047Z,2.50
2019-02-26T23:48:11.400Z,2.50
2019-02-26T23:50:47.119Z,2.50
2019-02-26T23:53:12.571Z,2.60
2019-02-26T23:55:40.927Z,2.50
2019-02-26T23:58:13.743Z,2.60
